Portada
METAR-TAF:

METAR-TAF

Aeropuertos :

Aeropuerto Internacional Ingeniero Ambrosio Taravella

Córdoba, Argentina

latitud: 31-19S, longitud: 064-13W, altitud: 484 m

Observación

El informe se hizo hace 28 minutos, a las 05:00 UTC
Viento 5 kt del oeste-suroeste
Temperatura 4°C
Humedad 75%
Presión 1028 hPa
Visibilidad 10 km o más
sin nubes por debajo de 1500 m y sin presencia de cumulonimbus.

METAR: SACO 240500Z 24005KT CAVOK 04/00 Q1028 NOSIG

Hora: 02:28 (05:28 UTC)

Pronóstico

El informe se hizo hace 6 horas y 28 minutos, a las 23:00 UTC
Pronóstico válido del 24 a las 00 UTC al 24 a las 24 UTC
Viento 10 kt del sureste
Visibilidad 10 km o más
sin nubes por debajo de 1500 m y sin presencia de cumulonimbus.
Evolucionando progresivamente
del 24 a las 09 UTC al 24 a las 12 UTC
Viento 10 kt del noreste

TAF: SACO 232300Z 2400/2424 14010KT CAVOK TX13/2418Z TNM00/2410Z BECMG 2409/2412 05010KT

Observaciones y pronósticos meteorológicos de más de 4000 aeropuertos (mensajes METAR y TAF).

Los puntos amarillos y rojos representan las estaciones disponibles.

Ponga el ratón en el punto deseado para ver el nombre de la estación.

Haga clic para ver las observaciones y los pronósticos meteorológicos.

Para cambiar el mapa : haga clic en los botones verdes con una cruz de color negro para hacer un zoom, en el botón verde con un guión para alejar o en las flechas verdes para mapas adyacentes.


METAR-TAF: